createdAt,value
2018-11-11T00:00:17.078Z,7.89
2018-11-11T00:01:17.100Z,7.89
2018-11-11T00:02:16.388Z,7.91
2018-11-11T00:03:16.705Z,7.91
2018-11-11T00:04:16.995Z,7.88
2018-11-11T00:05:16.347Z,7.89
2018-11-11T00:06:16.653Z,7.88
2018-11-11T00:07:16.957Z,7.91
2018-11-11T00:08:16.236Z,7.93
2018-11-11T00:09:16.559Z,7.95
2018-11-11T00:10:16.898Z,7.91
2018-11-11T00:11:16.921Z,7.88
2018-11-11T00:12:16.261Z,7.92
2018-11-11T00:13:16.588Z,7.89
2018-11-11T00:14:16.901Z,7.89
2018-11-11T00:15:17.232Z,7.85
2018-11-11T00:16:16.531Z,7.84
2018-11-11T00:17:16.808Z,7.84
2018-11-11T00:18:17.159Z,7.81
2018-11-11T00:19:16.434Z,7.81
2018-11-11T00:20:16.796Z,7.82
2018-11-11T00:21:16.797Z,7.81
2018-11-11T00:22:17.107Z,7.81
2018-11-11T00:23:16.424Z,7.80
2018-11-11T00:24:16.755Z,7.82
2018-11-11T00:25:17.084Z,7.84
2018-11-11T00:26:16.381Z,7.85
2018-11-11T00:27:16.701Z,7.85
2018-11-11T00:28:17.030Z,7.86
2018-11-11T00:29:16.323Z,7.84
2018-11-11T00:30:16.665Z,7.86
2018-11-11T00:31:16.701Z,7.85
2018-11-11T00:32:17.033Z,7.86
2018-11-11T00:33:16.339Z,7.86
2018-11-11T00:34:16.669Z,7.85
2018-11-11T00:35:17.022Z,7.82
2018-11-11T00:36:16.335Z,7.82
2018-11-11T00:37:16.655Z,7.84
2018-11-11T00:38:16.951Z,7.82
2018-11-11T00:39:16.270Z,7.86
2018-11-11T00:40:16.569Z,7.88
2018-11-11T00:41:16.631Z,7.86
2018-11-11T00:42:16.929Z,7.85
2018-11-11T00:43:16.253Z,7.85
2018-11-11T00:44:16.580Z,7.88
2018-11-11T00:45:16.905Z,7.88
2018-11-11T00:46:16.234Z,7.86
2018-11-11T00:47:16.535Z,7.88
2018-11-11T00:48:16.864Z,7.86
2018-11-11T00:49:17.178Z,7.86
2018-11-11T00:50:16.487Z,7.86
2018-11-11T00:51:16.529Z,7.86
2018-11-11T00:52:16.855Z,7.84
2018-11-11T00:53:17.149Z,7.86
2018-11-11T00:54:16.436Z,7.85
2018-11-11T00:55:16.759Z,7.85
2018-11-11T00:56:17.094Z,7.84
2018-11-11T00:57:16.380Z,7.82
2018-11-11T00:58:16.659Z,7.84
2018-11-11T00:59:17.016Z,7.82
2018-11-11T01:00:16.318Z,7.82
2018-11-11T01:01:16.395Z,7.85
2018-11-11T01:02:16.708Z,7.85
2018-11-11T01:03:16.996Z,7.84
2018-11-11T01:04:16.333Z,7.81
2018-11-11T01:05:16.616Z,7.80
2018-11-11T01:06:16.936Z,7.80
2018-11-11T01:07:16.246Z,7.80
2018-11-11T01:08:16.576Z,7.74
2018-11-11T01:09:16.860Z,7.74
2018-11-11T01:10:17.131Z,7.78
2018-11-11T01:11:17.222Z,7.77
2018-11-11T01:12:16.612Z,7.75
2018-11-11T01:13:17.110Z,7.75
2018-11-11T01:14:16.421Z,7.77
2018-11-11T01:15:16.728Z,7.74
2018-11-11T01:16:17.056Z,7.71
2018-11-11T01:17:16.385Z,7.71
2018-11-11T01:18:16.706Z,7.68
2018-11-11T01:19:17.038Z,7.68
2018-11-11T01:20:16.336Z,7.69
2018-11-11T01:21:16.422Z,7.69
2018-11-11T01:22:16.749Z,7.69
2018-11-11T01:23:17.062Z,7.65
2018-11-11T01:24:16.387Z,7.68
2018-11-11T01:25:16.710Z,7.66
2018-11-11T01:26:17.029Z,7.64
2018-11-11T01:27:16.317Z,7.62
2018-11-11T01:28:16.597Z,7.65
2018-11-11T01:29:16.907Z,7.66
2018-11-11T01:30:16.247Z,7.64
2018-11-11T01:31:16.310Z,7.65
2018-11-11T01:32:16.611Z,7.64
2018-11-11T01:33:16.941Z,7.64
2018-11-11T01:34:16.257Z,7.64
2018-11-11T01:35:16.567Z,7.61
2018-11-11T01:36:16.893Z,7.62
2018-11-11T01:37:17.224Z,7.62
2018-11-11T01:38:16.556Z,7.61
2018-11-11T01:39:16.855Z,7.59
2018-11-11T01:40:17.182Z,7.62
2018-11-11T01:41:17.684Z,7.61
2018-11-11T01:42:16.993Z,7.62
2018-11-11T01:43:16.347Z,7.62
2018-11-11T01:44:16.707Z,7.61
2018-11-11T01:45:17.004Z,7.64
2018-11-11T01:46:16.347Z,7.64
2018-11-11T01:47:16.656Z,7.58
2018-11-11T01:48:16.961Z,7.58
2018-11-11T01:49:16.254Z,7.62
2018-11-11T01:50:16.587Z,7.59
2018-11-11T01:51:16.646Z,7.57
2018-11-11T01:52:16.969Z,7.54
2018-11-11T01:53:16.299Z,7.53
2018-11-11T01:54:16.650Z,7.54
2018-11-11T01:55:16.954Z,7.54
2018-11-11T01:56:16.282Z,7.53
2018-11-11T01:57:16.584Z,7.54
2018-11-11T01:58:16.892Z,7.53
2018-11-11T01:59:17.353Z,7.53
2018-11-11T02:00:16.679Z,7.51
2018-11-11T02:01:16.710Z,7.53
2018-11-11T02:02:16.994Z,7.50
2018-11-11T02:03:16.369Z,7.51
2018-11-11T02:04:16.673Z,7.48
2018-11-11T02:05:16.961Z,7.48
2018-11-11T02:06:16.309Z,7.45
2018-11-11T02:07:16.657Z,7.48
2018-11-11T02:08:16.967Z,7.43
2018-11-11T02:09:16.270Z,7.45
2018-11-11T02:10:16.600Z,7.44
2018-11-11T02:11:16.645Z,7.44
2018-11-11T02:12:16.933Z,7.44
2018-11-11T02:13:16.253Z,7.45
2018-11-11T02:14:16.602Z,7.50
2018-11-11T02:15:16.907Z,7.50
2018-11-11T02:16:17.218Z,7.48
2018-11-11T02:17:16.507Z,7.50
2018-11-11T02:18:16.817Z,7.47
2018-11-11T02:19:17.138Z,7.47
2018-11-11T02:20:16.464Z,7.48
2018-11-11T02:21:16.566Z,7.45
2018-11-11T02:22:17.053Z,7.47
2018-11-11T02:23:16.362Z,7.51
2018-11-11T02:24:16.712Z,7.53
2018-11-11T02:25:17.043Z,7.53
2018-11-11T02:26:16.366Z,7.53
2018-11-11T02:27:16.694Z,7.50
2018-11-11T02:28:17.020Z,7.51
2018-11-11T02:29:16.323Z,7.53
2018-11-11T02:30:16.626Z,7.50
2018-11-11T02:31:16.696Z,7.51
2018-11-11T02:32:17.017Z,7.50
2018-11-11T02:33:16.364Z,7.53
2018-11-11T02:34:16.688Z,7.53
2018-11-11T02:35:16.987Z,7.50
2018-11-11T02:36:16.320Z,7.51
2018-11-11T02:37:16.686Z,7.50
2018-11-11T02:38:17.119Z,7.51
2018-11-11T02:39:16.452Z,7.50
2018-11-11T02:40:16.751Z,7.48
2018-11-11T02:41:16.795Z,7.53
2018-11-11T02:42:17.092Z,7.51
2018-11-11T02:43:16.429Z,7.48
2018-11-11T02:44:16.786Z,7.45
2018-11-11T02:45:17.093Z,7.48
2018-11-11T02:46:16.405Z,7.51
2018-11-11T02:47:16.696Z,7.53
2018-11-11T02:48:17.017Z,7.47
2018-11-11T02:49:16.310Z,7.53
2018-11-11T02:50:16.645Z,7.48
2018-11-11T02:51:16.685Z,7.47
2018-11-11T02:52:17.018Z,7.45
2018-11-11T02:53:16.357Z,7.47
2018-11-11T02:54:16.640Z,7.48
2018-11-11T02:55:16.958Z,7.51
2018-11-11T02:56:16.271Z,7.53
2018-11-11T02:57:16.576Z,7.51
2018-11-11T02:58:16.940Z,7.53
2018-11-11T02:59:16.242Z,7.51
2018-11-11T03:00:16.571Z,7.51
2018-11-11T03:01:16.617Z,7.50
2018-11-11T03:02:16.924Z,7.54
2018-11-11T03:03:16.239Z,7.51
2018-11-11T03:04:16.626Z,7.48
2018-11-11T03:05:17.129Z,7.51
2018-11-11T03:06:16.555Z,7.51
2018-11-11T03:07:16.863Z,7.47
2018-11-11T03:08:17.188Z,7.53
2018-11-11T03:09:16.505Z,7.45
2018-11-11T03:10:16.617Z,7.44
2018-11-11T03:11:16.663Z,7.44
2018-11-11T03:12:16.981Z,7.44
2018-11-11T03:13:16.272Z,7.43
2018-11-11T03:14:16.582Z,7.40
2018-11-11T03:15:16.894Z,7.41
2018-11-11T03:16:17.179Z,7.43
2018-11-11T03:17:16.515Z,7.40
2018-11-11T03:18:16.819Z,7.40
2018-11-11T03:19:17.478Z,7.38
2018-11-11T03:20:16.795Z,7.41
2018-11-11T03:21:16.848Z,7.38
2018-11-11T03:22:17.184Z,7.43
2018-11-11T03:23:16.493Z,7.41
2018-11-11T03:24:16.806Z,7.40
2018-11-11T03:25:17.122Z,7.41
2018-11-11T03:26:16.436Z,7.43
2018-11-11T03:27:16.769Z,7.41
2018-11-11T03:28:17.070Z,7.41
2018-11-11T03:29:16.382Z,7.40
2018-11-11T03:30:16.713Z,7.40
2018-11-11T03:31:16.733Z,7.37
2018-11-11T03:32:17.038Z,7.38
2018-11-11T03:33:16.379Z,7.37
2018-11-11T03:34:16.664Z,7.38
2018-11-11T03:35:16.976Z,7.37
2018-11-11T03:36:16.311Z,7.38
2018-11-11T03:37:16.610Z,7.38
2018-11-11T03:38:16.935Z,7.40
2018-11-11T03:39:16.265Z,7.35
2018-11-11T03:40:16.579Z,7.37
2018-11-11T03:41:16.642Z,7.38
2018-11-11T03:42:16.970Z,7.40
2018-11-11T03:43:16.299Z,7.41
2018-11-11T03:44:16.609Z,7.44
2018-11-11T03:45:16.908Z,7.44
2018-11-11T03:46:16.225Z,7.43
2018-11-11T03:47:16.562Z,7.45
2018-11-11T03:48:16.855Z,7.44
2018-11-11T03:49:17.204Z,7.44
2018-11-11T03:50:16.517Z,7.44
2018-11-11T03:51:16.565Z,7.47
2018-11-11T03:52:16.890Z,7.45
2018-11-11T03:53:16.211Z,7.45
2018-11-11T03:54:16.514Z,7.45
2018-11-11T03:55:17.136Z,7.44
2018-11-11T03:56:16.465Z,7.44
2018-11-11T03:57:16.785Z,7.44
2018-11-11T03:58:17.079Z,7.47
2018-11-11T03:59:16.426Z,7.48
2018-11-11T04:00:16.743Z,7.47
2018-11-11T04:01:16.773Z,7.48
2018-11-11T04:02:17.112Z,7.50
2018-11-11T04:03:16.454Z,7.51
2018-11-11T04:04:16.736Z,7.53
2018-11-11T04:05:17.026Z,7.51
2018-11-11T04:06:16.341Z,7.53
2018-11-11T04:07:16.653Z,7.55
2018-11-11T04:08:16.971Z,7.54
2018-11-11T04:09:16.276Z,7.57
2018-11-11T04:10:16.682Z,7.55
2018-11-11T04:11:16.604Z,7.57
2018-11-11T04:12:16.928Z,7.54
2018-11-11T04:13:17.234Z,7.54
2018-11-11T04:14:16.555Z,7.54
2018-11-11T04:15:16.915Z,7.53
2018-11-11T04:16:16.225Z,7.54
2018-11-11T04:17:16.569Z,7.50
2018-11-11T04:18:16.867Z,7.54
2018-11-11T04:19:17.198Z,7.53
2018-11-11T04:20:16.489Z,7.53
2018-11-11T04:21:16.539Z,7.57
2018-11-11T04:22:16.840Z,7.55
2018-11-11T04:23:17.142Z,7.54
2018-11-11T04:24:16.436Z,7.55
2018-11-11T04:25:16.768Z,7.55
2018-11-11T04:26:17.041Z,7.55
2018-11-11T04:27:16.335Z,7.51
2018-11-11T04:28:16.659Z,7.51
2018-11-11T04:29:16.994Z,7.53
2018-11-11T04:30:16.322Z,7.51
2018-11-11T04:31:16.391Z,7.48
2018-11-11T04:32:16.716Z,7.50
2018-11-11T04:33:17.017Z,7.45
2018-11-11T04:34:16.326Z,7.48
2018-11-11T04:35:16.660Z,7.47
2018-11-11T04:36:16.983Z,7.44
2018-11-11T04:37:16.308Z,7.43
2018-11-11T04:38:16.595Z,7.40
2018-11-11T04:39:17.042Z,7.43
2018-11-11T04:40:16.593Z,7.38
2018-11-11T04:41:16.658Z,7.34
2018-11-11T04:42:16.968Z,7.37
2018-11-11T04:43:16.272Z,7.37
2018-11-11T04:44:16.535Z,7.38
2018-11-11T04:45:16.861Z,7.34
2018-11-11T04:46:16.524Z,7.34
2018-11-11T04:47:16.924Z,7.31
2018-11-11T04:48:17.199Z,7.31
2018-11-11T04:49:16.497Z,7.33
2018-11-11T04:50:16.837Z,7.33
2018-11-11T04:51:17.172Z,7.35
2018-11-11T04:52:16.466Z,7.37
2018-11-11T04:53:16.765Z,7.40
2018-11-11T04:54:17.104Z,7.40
2018-11-11T04:55:16.437Z,7.40
2018-11-11T04:56:16.747Z,7.34
2018-11-11T04:57:17.067Z,7.40
2018-11-11T04:58:16.389Z,7.35
2018-11-11T04:59:16.692Z,7.38
2018-11-11T05:00:16.993Z,7.37
2018-11-11T05:01:17.139Z,7.37
2018-11-11T05:02:16.517Z,7.37
2018-11-11T05:03:16.816Z,7.35
2018-11-11T05:04:17.137Z,7.35
2018-11-11T05:05:16.427Z,7.34
2018-11-11T05:06:16.747Z,7.33
2018-11-11T05:07:17.040Z,7.31
2018-11-11T05:08:16.363Z,7.33
2018-11-11T05:09:16.674Z,7.27
2018-11-11T05:10:16.369Z,7.23
2018-11-11T05:11:16.406Z,7.23
2018-11-11T05:12:17.029Z,7.23
2018-11-11T05:13:16.322Z,7.24
2018-11-11T05:14:16.634Z,7.27
2018-11-11T05:15:16.928Z,7.26
2018-11-11T05:16:16.277Z,7.26
2018-11-11T05:17:16.598Z,7.22
2018-11-11T05:18:16.890Z,7.23
2018-11-11T05:19:17.157Z,7.22
2018-11-11T05:20:16.489Z,7.33
2018-11-11T05:21:16.544Z,7.30
2018-11-11T05:22:16.848Z,7.24
2018-11-11T05:23:17.150Z,7.27
2018-11-11T05:24:16.447Z,7.29
2018-11-11T05:25:16.759Z,7.29
2018-11-11T05:26:17.087Z,7.29
2018-11-11T05:27:16.411Z,7.29
2018-11-11T05:28:16.763Z,7.29
2018-11-11T05:29:17.090Z,7.26
2018-11-11T05:30:16.418Z,7.23
2018-11-11T05:31:16.464Z,7.22
2018-11-11T05:32:16.761Z,7.24
2018-11-11T05:33:17.109Z,7.19
2018-11-11T05:34:16.398Z,7.23
2018-11-11T05:35:16.692Z,7.24
2018-11-11T05:36:17.030Z,7.19
2018-11-11T05:37:16.383Z,7.17
2018-11-11T05:38:16.678Z,7.20
2018-11-11T05:39:17.094Z,7.19
2018-11-11T05:40:16.472Z,7.17
2018-11-11T05:41:16.501Z,7.15
2018-11-11T05:42:16.792Z,7.06
2018-11-11T05:43:17.154Z,6.95
2018-11-11T05:44:16.490Z,7.02
2018-11-11T05:45:16.804Z,7.10
2018-11-11T05:46:17.139Z,7.09
2018-11-11T05:47:16.443Z,7.02
2018-11-11T05:48:16.779Z,7.03
2018-11-11T05:49:17.071Z,7.03
2018-11-11T05:50:16.346Z,7.00
2018-11-11T05:51:16.395Z,7.03
2018-11-11T05:52:16.712Z,7.00
2018-11-11T05:53:17.097Z,7.00
2018-11-11T05:54:16.430Z,6.92
2018-11-11T05:55:16.744Z,6.99
2018-11-11T05:56:17.047Z,6.99
2018-11-11T05:57:16.365Z,6.92
2018-11-11T05:58:16.684Z,6.91
2018-11-11T05:59:16.988Z,6.94
2018-11-11T06:00:16.326Z,6.96
2018-11-11T06:01:16.367Z,6.88
2018-11-11T06:02:16.693Z,6.88
2018-11-11T06:03:17.029Z,6.91
2018-11-11T06:04:16.325Z,6.79
2018-11-11T06:05:16.672Z,6.84
2018-11-11T06:06:16.997Z,6.85
2018-11-11T06:07:16.291Z,6.89
2018-11-11T06:08:16.584Z,6.82
2018-11-11T06:09:16.908Z,6.69
2018-11-11T06:10:17.242Z,6.71
2018-11-11T06:11:16.282Z,6.61
2018-11-11T06:12:16.597Z,6.58
2018-11-11T06:13:16.898Z,6.57
2018-11-11T06:14:17.226Z,6.57
2018-11-11T06:15:16.521Z,6.57
2018-11-11T06:16:16.810Z,6.67
2018-11-11T06:17:17.111Z,6.65
2018-11-11T06:18:16.421Z,6.61
2018-11-11T06:19:16.734Z,6.51
2018-11-11T06:20:17.046Z,6.49
2018-11-11T06:21:17.055Z,6.44
2018-11-11T06:22:16.380Z,6.43
2018-11-11T06:23:16.680Z,6.37
2018-11-11T06:24:16.989Z,6.36
2018-11-11T06:25:16.328Z,6.51
2018-11-11T06:26:16.635Z,6.48
2018-11-11T06:27:16.990Z,6.37
2018-11-11T06:28:16.371Z,6.30
2018-11-11T06:29:16.693Z,6.30
2018-11-11T06:30:17.047Z,6.49
2018-11-11T06:31:17.064Z,6.49
2018-11-11T06:32:16.377Z,6.45
2018-11-11T06:33:16.693Z,6.51
2018-11-11T06:34:17.126Z,6.51
2018-11-11T06:35:16.745Z,6.52
2018-11-11T06:36:17.082Z,6.45
2018-11-11T06:37:16.388Z,6.43
2018-11-11T06:38:16.697Z,6.43
2018-11-11T06:39:16.996Z,6.44
2018-11-11T06:40:16.339Z,6.36
2018-11-11T06:41:16.364Z,6.33
2018-11-11T06:42:16.629Z,6.31
2018-11-11T06:43:16.921Z,6.34
2018-11-11T06:44:16.244Z,6.33
2018-11-11T06:45:16.552Z,6.30
2018-11-11T06:46:16.847Z,6.33
2018-11-11T06:47:17.159Z,6.36
2018-11-11T06:48:16.482Z,6.31
2018-11-11T06:49:16.828Z,6.40
2018-11-11T06:50:17.125Z,6.41
2018-11-11T06:51:17.164Z,6.33
2018-11-11T06:52:16.459Z,6.27
2018-11-11T06:53:16.779Z,6.34
2018-11-11T06:54:17.089Z,6.41
2018-11-11T06:55:16.396Z,6.38
2018-11-11T06:56:16.693Z,6.34
2018-11-11T06:57:17.019Z,6.33
2018-11-11T06:58:16.361Z,6.38
2018-11-11T06:59:16.655Z,6.30
2018-11-11T07:00:17.011Z,6.33
2018-11-11T07:01:17.030Z,6.40
2018-11-11T07:02:16.353Z,6.34
2018-11-11T07:03:16.699Z,6.31
2018-11-11T07:04:17.008Z,6.31
2018-11-11T07:05:16.300Z,6.37
2018-11-11T07:06:16.606Z,6.37
2018-11-11T07:07:16.948Z,6.31
2018-11-11T07:08:16.310Z,6.37
2018-11-11T07:09:16.604Z,6.30
2018-11-11T07:10:16.917Z,6.33
2018-11-11T07:11:16.985Z,6.33
2018-11-11T07:12:16.315Z,6.34
2018-11-11T07:13:16.664Z,6.38
2018-11-11T07:14:16.969Z,6.47
2018-11-11T07:15:16.498Z,6.55
2018-11-11T07:16:16.813Z,6.58
2018-11-11T07:17:17.102Z,6.68
2018-11-11T07:18:16.440Z,6.78
2018-11-11T07:19:16.760Z,6.82
2018-11-11T07:20:17.081Z,6.84
2018-11-11T07:21:17.118Z,6.86
2018-11-11T07:22:16.439Z,6.94
2018-11-11T07:23:16.734Z,6.96
2018-11-11T07:24:17.177Z,6.99
2018-11-11T07:25:16.699Z,7.10
2018-11-11T07:26:16.995Z,7.10
2018-11-11T07:27:16.288Z,7.19
2018-11-11T07:28:16.604Z,7.19
2018-11-11T07:29:16.939Z,7.26
2018-11-11T07:30:16.254Z,7.31
2018-11-11T07:31:16.281Z,7.43
2018-11-11T07:32:16.585Z,7.48
2018-11-11T07:33:16.874Z,7.55
2018-11-11T07:34:17.434Z,7.58
2018-11-11T07:35:16.779Z,7.64
2018-11-11T07:36:17.107Z,7.68
2018-11-11T07:37:16.417Z,7.69
2018-11-11T07:38:16.721Z,7.72
2018-11-11T07:39:17.040Z,7.75
2018-11-11T07:40:16.360Z,7.77
2018-11-11T07:41:16.374Z,7.78
2018-11-11T07:42:16.685Z,7.80
2018-11-11T07:43:17.155Z,7.82
2018-11-11T07:44:16.425Z,7.84
2018-11-11T07:45:16.726Z,7.86
2018-11-11T07:46:17.010Z,7.84
2018-11-11T07:47:16.319Z,7.85
2018-11-11T07:48:16.623Z,7.88
2018-11-11T07:49:16.927Z,7.89
2018-11-11T07:50:16.242Z,7.89
2018-11-11T07:51:16.292Z,7.91
2018-11-11T07:52:16.573Z,7.92
2018-11-11T07:53:16.849Z,7.93
2018-11-11T07:54:17.454Z,7.89
2018-11-11T07:55:16.811Z,7.88
2018-11-11T07:56:17.156Z,7.93
2018-11-11T07:57:16.438Z,7.93
2018-11-11T07:58:16.796Z,7.95
2018-11-11T07:59:17.186Z,7.99
2018-11-11T08:00:16.518Z,7.96
2018-11-11T08:01:16.548Z,8.00
2018-11-11T08:02:16.948Z,8.02
2018-11-11T08:03:16.372Z,8.02
2018-11-11T08:04:16.671Z,8.00
2018-11-11T08:05:16.979Z,8.09
2018-11-11T08:06:16.287Z,8.10
2018-11-11T08:07:16.596Z,8.16
2018-11-11T08:08:16.899Z,8.19
2018-11-11T08:09:17.198Z,8.19
2018-11-11T08:10:16.501Z,8.17
2018-11-11T08:11:16.686Z,8.20
2018-11-11T08:12:16.317Z,8.16
2018-11-11T08:13:16.619Z,8.19
2018-11-11T08:14:16.869Z,8.23
2018-11-11T08:15:17.190Z,8.17
2018-11-11T08:16:16.506Z,8.21
2018-11-11T08:17:16.779Z,8.24
2018-11-11T08:18:17.080Z,8.24
2018-11-11T08:19:16.387Z,8.26
2018-11-11T08:20:16.685Z,8.26
2018-11-11T08:21:16.765Z,8.27
2018-11-11T08:22:17.071Z,8.31
2018-11-11T08:23:16.354Z,8.33
2018-11-11T08:24:16.662Z,8.31
2018-11-11T08:25:17.031Z,8.31
2018-11-11T08:26:16.419Z,8.34
2018-11-11T08:27:16.673Z,8.36
2018-11-11T08:28:16.953Z,8.37
2018-11-11T08:29:16.241Z,8.33
2018-11-11T08:30:16.569Z,8.34
2018-11-11T08:31:16.611Z,8.36
2018-11-11T08:32:16.962Z,8.39
2018-11-11T08:33:16.487Z,8.41
2018-11-11T08:34:16.800Z,8.41
2018-11-11T08:35:17.116Z,8.43
2018-11-11T08:36:16.445Z,8.47
2018-11-11T08:37:16.780Z,8.50
2018-11-11T08:38:17.077Z,8.54
2018-11-11T08:39:16.375Z,8.52
2018-11-11T08:40:16.721Z,8.54
2018-11-11T08:41:16.764Z,8.57
2018-11-11T08:42:17.041Z,8.57
2018-11-11T08:43:16.323Z,8.55
2018-11-11T08:44:16.621Z,8.61
2018-11-11T08:45:16.936Z,8.67
2018-11-11T08:46:16.255Z,8.67
2018-11-11T08:47:16.577Z,8.69
2018-11-11T08:48:16.951Z,8.69
2018-11-11T08:49:16.425Z,8.75
2018-11-11T08:50:16.750Z,8.76
2018-11-11T08:51:16.767Z,8.75
2018-11-11T08:52:17.085Z,8.75
2018-11-11T08:53:16.367Z,8.76
2018-11-11T08:54:16.686Z,8.74
2018-11-11T08:55:16.970Z,8.75
2018-11-11T08:56:16.315Z,8.80
2018-11-11T08:57:16.623Z,8.79
2018-11-11T08:58:16.892Z,8.84
2018-11-11T08:59:17.176Z,8.86
2018-11-11T09:00:16.513Z,8.96
2018-11-11T09:01:16.548Z,9.06
2018-11-11T09:02:16.820Z,9.10
2018-11-11T09:03:17.157Z,9.10
2018-11-11T09:04:16.469Z,9.12
2018-11-11T09:05:16.783Z,9.10
2018-11-11T09:06:17.122Z,9.15
2018-11-11T09:07:16.450Z,9.33
2018-11-11T09:08:16.794Z,9.48
2018-11-11T09:09:17.091Z,9.43
2018-11-11T09:10:16.427Z,9.36
2018-11-11T09:11:16.479Z,9.47
2018-11-11T09:12:16.807Z,9.45
2018-11-11T09:13:17.158Z,9.51
2018-11-11T09:14:16.443Z,9.47
2018-11-11T09:15:16.765Z,9.44
2018-11-11T09:16:17.041Z,9.43
2018-11-11T09:17:16.337Z,9.40
2018-11-11T09:18:16.641Z,9.40
2018-11-11T09:19:16.913Z,9.37
2018-11-11T09:20:17.236Z,9.38
2018-11-11T09:21:16.279Z,9.44
2018-11-11T09:22:16.705Z,9.41
2018-11-11T09:23:17.014Z,9.45
2018-11-11T09:24:16.300Z,9.45
2018-11-11T09:25:16.656Z,9.51
2018-11-11T09:26:16.970Z,9.54
2018-11-11T09:27:16.260Z,9.59
2018-11-11T09:28:16.589Z,9.62
2018-11-11T09:29:16.913Z,9.72
2018-11-11T09:30:16.385Z,9.81
2018-11-11T09:31:16.334Z,9.98
2018-11-11T09:32:16.649Z,10.05
2018-11-11T09:33:16.941Z,10.14
2018-11-11T09:34:16.210Z,10.21
2018-11-11T09:35:16.594Z,10.24
2018-11-11T09:36:17.145Z,10.23
2018-11-11T09:37:16.429Z,10.17
2018-11-11T09:38:16.705Z,10.23
2018-11-11T09:39:17.052Z,10.27
2018-11-11T09:40:16.398Z,10.24
2018-11-11T09:41:16.458Z,10.24
2018-11-11T09:42:16.767Z,10.20
2018-11-11T09:43:17.174Z,10.21
2018-11-11T09:44:16.507Z,10.23
2018-11-11T09:45:16.797Z,10.19
2018-11-11T09:46:17.130Z,10.26
2018-11-11T09:47:16.445Z,10.26
2018-11-11T09:48:16.723Z,10.29
2018-11-11T09:49:17.033Z,10.27
2018-11-11T09:50:16.330Z,10.33
2018-11-11T09:51:16.388Z,10.37
2018-11-11T09:52:16.696Z,10.30
2018-11-11T09:53:17.031Z,10.33
2018-11-11T09:54:16.420Z,10.33
2018-11-11T09:55:16.845Z,10.34
2018-11-11T09:56:17.155Z,10.34
2018-11-11T09:57:16.443Z,10.34
2018-11-11T09:58:16.763Z,10.40
2018-11-11T09:59:17.096Z,10.41
2018-11-11T10:00:16.451Z,10.44
2018-11-11T10:01:16.478Z,10.44
2018-11-11T10:02:16.791Z,10.39
2018-11-11T10:03:17.097Z,10.40
2018-11-11T10:04:16.393Z,10.40
2018-11-11T10:05:16.690Z,10.36
2018-11-11T10:06:17.019Z,10.40
2018-11-11T10:07:16.425Z,10.41
2018-11-11T10:08:16.730Z,10.39
2018-11-11T10:09:17.040Z,10.30
2018-11-11T10:10:16.402Z,10.31
2018-11-11T10:11:16.436Z,10.30
2018-11-11T10:12:16.768Z,10.36
2018-11-11T10:13:17.186Z,10.29
2018-11-11T10:14:16.527Z,10.26
2018-11-11T10:15:16.842Z,10.30
2018-11-11T10:16:17.188Z,10.31
2018-11-11T10:17:16.497Z,10.31
2018-11-11T10:18:16.793Z,10.37
2018-11-11T10:19:17.105Z,10.37
2018-11-11T10:20:16.464Z,10.41
2018-11-11T10:21:16.488Z,10.45
2018-11-11T10:22:16.819Z,10.43
2018-11-11T10:23:17.111Z,10.44
2018-11-11T10:24:16.438Z,10.43
2018-11-11T10:25:16.792Z,10.54
2018-11-11T10:26:17.097Z,10.60
2018-11-11T10:27:16.450Z,10.67
2018-11-11T10:28:16.920Z,10.77
2018-11-11T10:29:16.299Z,10.75
2018-11-11T10:30:16.723Z,10.71
2018-11-11T10:31:16.738Z,10.67
2018-11-11T10:32:17.068Z,10.68
2018-11-11T10:33:16.404Z,10.71
2018-11-11T10:34:16.745Z,10.74
2018-11-11T10:35:17.022Z,10.79
2018-11-11T10:36:16.314Z,10.77
2018-11-11T10:37:16.609Z,10.74
2018-11-11T10:38:17.219Z,10.85
2018-11-11T10:39:16.633Z,10.98
2018-11-11T10:40:16.245Z,10.85
2018-11-11T10:41:16.272Z,10.94
2018-11-11T10:42:16.613Z,10.89
2018-11-11T10:43:16.960Z,10.91
2018-11-11T10:44:16.332Z,10.91
2018-11-11T10:45:16.830Z,11.05
2018-11-11T10:46:17.149Z,11.16
2018-11-11T10:47:16.470Z,11.15
2018-11-11T10:48:16.779Z,11.17
2018-11-11T10:49:17.089Z,11.10
2018-11-11T10:50:16.405Z,11.22
2018-11-11T10:51:16.458Z,11.25
2018-11-11T10:52:16.763Z,11.23
2018-11-11T10:53:17.053Z,11.17
2018-11-11T10:54:16.380Z,11.22
2018-11-11T10:55:16.779Z,11.26
2018-11-11T10:56:16.408Z,11.22
2018-11-11T10:57:16.716Z,11.29
2018-11-11T10:58:17.033Z,11.25
2018-11-11T10:59:16.378Z,11.20
2018-11-11T11:00:16.780Z,11.19
2018-11-11T11:01:16.754Z,11.23
2018-11-11T11:02:17.063Z,11.34
2018-11-11T11:03:16.390Z,11.34
2018-11-11T11:04:16.712Z,11.39
2018-11-11T11:05:17.036Z,11.43
2018-11-11T11:06:16.447Z,11.47
2018-11-11T11:07:16.988Z,11.65
2018-11-11T11:08:16.294Z,11.60
2018-11-11T11:09:16.629Z,11.53
2018-11-11T11:10:16.959Z,11.46
2018-11-11T11:11:16.994Z,11.39
2018-11-11T11:12:16.308Z,11.36
2018-11-11T11:13:16.694Z,11.47
2018-11-11T11:14:17.162Z,11.51
2018-11-11T11:15:16.474Z,11.64
2018-11-11T11:16:16.761Z,11.61
2018-11-11T11:17:17.124Z,11.61
2018-11-11T11:18:16.450Z,11.67
2018-11-11T11:19:16.747Z,11.71
2018-11-11T11:20:17.081Z,11.81
2018-11-11T11:21:17.143Z,11.99
2018-11-11T11:22:16.452Z,12.02
2018-11-11T11:23:16.755Z,12.03
2018-11-11T11:24:17.059Z,12.12
2018-11-11T11:25:16.385Z,12.16
2018-11-11T11:26:16.692Z,12.16
2018-11-11T11:27:17.025Z,12.16
2018-11-11T11:28:16.601Z,12.28
2018-11-11T11:29:16.931Z,12.41
2018-11-11T11:30:16.284Z,12.39
2018-11-11T11:31:16.396Z,12.40
2018-11-11T11:32:16.998Z,12.58
2018-11-11T11:33:16.764Z,12.50
2018-11-11T11:34:17.055Z,12.49
2018-11-11T11:35:16.436Z,12.51
2018-11-11T11:36:16.865Z,12.50
2018-11-11T11:37:17.163Z,12.39
2018-11-11T11:38:16.563Z,12.39
2018-11-11T11:39:16.912Z,12.26
2018-11-11T11:40:16.256Z,12.19
2018-11-11T11:41:16.372Z,12.15
2018-11-11T11:42:16.815Z,12.18
2018-11-11T11:43:17.114Z,12.23
2018-11-11T11:44:16.528Z,12.30
2018-11-11T11:45:17.081Z,12.33
2018-11-11T11:46:16.410Z,12.29
2018-11-11T11:47:16.721Z,12.28
2018-11-11T11:48:17.147Z,12.29
2018-11-11T11:49:16.435Z,12.29
2018-11-11T11:50:16.772Z,12.26
2018-11-11T11:51:16.801Z,12.30
2018-11-11T11:52:17.162Z,12.49
2018-11-11T11:53:16.490Z,12.50
2018-11-11T11:54:16.777Z,12.50
2018-11-11T11:55:17.096Z,12.46
2018-11-11T11:56:16.411Z,12.58
2018-11-11T11:57:16.709Z,12.63
2018-11-11T11:58:17.126Z,12.47
2018-11-11T11:59:16.550Z,12.51
2018-11-11T12:00:16.892Z,12.54
2018-11-11T12:01:16.933Z,12.46
2018-11-11T12:02:16.408Z,12.41
2018-11-11T12:03:17.084Z,12.50
2018-11-11T12:04:16.420Z,12.54
2018-11-11T12:05:16.747Z,12.54
2018-11-11T12:06:17.094Z,12.43
2018-11-11T12:07:16.393Z,12.66
2018-11-11T12:08:16.720Z,12.71
2018-11-11T12:09:17.157Z,12.71
2018-11-11T12:10:16.628Z,12.77
2018-11-11T12:11:16.717Z,12.72
2018-11-11T12:12:16.987Z,12.75
2018-11-11T12:13:16.301Z,12.75
2018-11-11T12:14:16.632Z,12.89
2018-11-11T12:15:17.000Z,12.82
2018-11-11T12:16:16.349Z,12.84
2018-11-11T12:17:16.743Z,12.85
2018-11-11T12:18:16.360Z,12.82
2018-11-11T12:19:16.687Z,12.98
2018-11-11T12:20:17.016Z,12.99
2018-11-11T12:21:17.048Z,13.12
2018-11-11T12:22:16.366Z,13.12
2018-11-11T12:23:16.834Z,13.05
2018-11-11T12:24:16.424Z,13.15
2018-11-11T12:25:16.751Z,13.14
2018-11-11T12:26:17.048Z,13.12
2018-11-11T12:27:16.378Z,13.15
2018-11-11T12:28:16.681Z,13.34
2018-11-11T12:29:16.953Z,13.40
2018-11-11T12:30:16.328Z,13.34
2018-11-11T12:31:16.348Z,13.22
2018-11-11T12:32:16.655Z,13.40
2018-11-11T12:33:16.986Z,13.42
2018-11-11T12:34:16.321Z,13.29
2018-11-11T12:35:16.638Z,13.39
2018-11-11T12:36:16.948Z,13.46
2018-11-11T12:37:16.273Z,13.43
2018-11-11T12:38:16.566Z,13.43
2018-11-11T12:39:17.049Z,13.67
2018-11-11T12:40:16.767Z,13.58
2018-11-11T12:41:16.692Z,13.58
2018-11-11T12:42:16.991Z,13.54
2018-11-11T12:43:16.395Z,13.80
2018-11-11T12:44:16.734Z,13.76
2018-11-11T12:45:17.052Z,13.61
2018-11-11T12:46:16.341Z,13.65
2018-11-11T12:47:16.630Z,13.70
2018-11-11T12:48:16.943Z,13.78
2018-11-11T12:49:16.253Z,13.88
2018-11-11T12:50:16.679Z,13.84
2018-11-11T12:51:16.605Z,13.84
2018-11-11T12:52:16.934Z,13.97
2018-11-11T12:53:16.244Z,13.91
2018-11-11T12:54:16.570Z,13.94
2018-11-11T12:55:16.908Z,13.80
2018-11-11T12:56:16.441Z,13.71
2018-11-11T12:57:16.727Z,13.70
2018-11-11T12:58:17.076Z,13.64
2018-11-11T12:59:16.387Z,13.84
2018-11-11T13:00:16.706Z,13.81
2018-11-11T13:01:16.755Z,14.07
2018-11-11T13:02:17.073Z,14.09
2018-11-11T13:03:16.384Z,14.00
2018-11-11T13:04:16.713Z,14.01
2018-11-11T13:05:17.027Z,14.05
2018-11-11T13:06:16.359Z,14.08
2018-11-11T13:07:16.691Z,13.94
2018-11-11T13:08:17.006Z,14.08
2018-11-11T13:09:16.341Z,13.97
2018-11-11T13:10:16.661Z,13.87
2018-11-11T13:11:16.748Z,13.85